Time;durP1;ratioP1;P1;durP2;ratioP2;P2;SDS_P1;SDS_P2;PMS_P1;PMS_P2;Temp;Humidity;BMP_temperature;BMP_pressure;BME280_temperature;BME280_humidity;BME280_pressure;Samples;Min_cycle;Max_cycle;Signal;HPM_P1;HPM_P2
2021/01/27 00:00:18;;;;;;;22.03;14.17;;;5.00;99.90;;;5.03;77.64;101340.41;5093068;28;20492;-71
2021/01/27 00:02:46;;;;;;;18.53;13.80;;;5.00;99.90;;;5.14;77.40;101349.41;5074976;28;20133;-71
2021/01/27 00:05:19;;;;;;;20.57;14.00;;;5.00;99.90;;;5.23;77.33;101360.13;5093032;28;20036;-71
2021/01/27 00:07:47;;;;;;;21.73;14.50;;;5.10;99.90;;;5.31;76.51;101358.59;5093090;28;20048;-72
2021/01/27 00:10:15;;;;;;;18.97;14.47;;;5.20;99.90;;;5.35;76.68;101363.06;5093000;28;20119;-71
2021/01/27 00:12:43;;;;;;;20.50;13.30;;;5.20;99.90;;;5.39;76.54;101362.28;5074641;28;20143;-71
2021/01/27 00:15:16;;;;;;;20.33;14.70;;;5.20;99.90;;;5.44;76.38;101355.41;5092841;28;20051;-71
2021/01/27 00:17:44;;;;;;;20.70;14.87;;;5.30;99.90;;;5.38;76.19;101335.16;5092785;28;20059;-72
2021/01/27 00:20:18;;;;;;;25.73;14.27;;;5.30;99.90;;;5.33;76.11;101357.78;5092818;28;20124;-71
2021/01/27 00:22:46;;;;;;;17.47;14.37;;;5.30;99.90;;;5.28;76.66;101342.78;5074867;28;20052;-69
2021/01/27 00:25:17;;;;;;;20.50;13.77;;;5.20;99.90;;;5.22;76.93;101337.38;5092762;28;20547;-70
2021/01/27 00:27:48;;;;;;;17.87;14.03;;;5.20;99.90;;;5.02;77.32;101349.09;5092686;28;20076;-69
2021/01/27 00:30:20;;;;;;;23.27;13.80;;;5.10;99.90;;;5.00;77.82;101321.97;5092955;28;20066;-71
2021/01/27 00:32:48;;;;;;;21.57;14.30;;;5.00;99.90;;;4.91;78.16;101319.13;5074823;28;20055;-71
2021/01/27 00:35:19;;;;;;;20.97;14.83;;;4.90;99.90;;;4.74;78.04;101286.38;5092579;28;20585;-71
2021/01/27 00:37:46;;;;;;;;;;;4.90;99.90;;;4.72;79.13;101315.16;5074949;28;20044;-70
2021/01/27 00:40:15;;;;;;;23.37;15.20;;;4.70;99.90;;;4.84;79.19;101304.97;5092502;28;19964;-73
2021/01/27 00:42:43;;;;;;;16.97;14.07;;;4.70;99.90;;;4.37;79.62;101230.44;5092640;28;20070;-71
2021/01/27 00:45:11;;;;;;;22.47;16.03;;;4.70;99.90;;;4.68;80.01;101287.09;5092511;28;20040;-70
2021/01/27 00:47:39;;;;;;;19.93;15.00;;;4.70;99.90;;;4.65;79.86;101271.28;5092665;28;20067;-70
2021/01/27 00:50:10;;;;;;;25.27;17.40;;;4.70;99.90;;;4.65;80.02;101312.31;5092507;28;20405;-70
2021/01/27 00:52:37;;;;;;;20.83;17.65;;;4.70;99.90;;;4.42;80.87;101298.59;5074598;28;20072;-72
2021/01/27 00:55:12;;;;;;;20.90;15.40;;;4.50;99.90;;;4.52;80.72;101293.66;5092380;28;20044;-71
2021/01/27 00:57:39;;;;;;;22.40;15.77;;;4.50;99.90;;;4.56;80.95;101285.06;5092677;28;20072;-72
2021/01/27 01:00:15;;;;;;;22.10;17.23;;;4.50;99.90;;;4.49;81.14;101267.38;5092507;28;20036;-71
2021/01/27 01:02:43;;;;;;;21.47;15.93;;;4.50;99.90;;;4.54;81.15;101270.13;5092397;28;20048;-71
2021/01/27 01:05:14;;;;;;;20.80;16.70;;;4.40;99.90;;;4.44;81.87;101263.78;5092332;28;20481;-70
2021/01/27 01:07:44;;;;;;;22.03;17.83;;;4.40;99.90;;;4.31;82.45;101251.22;5092397;28;20110;-71
2021/01/27 01:10:13;;;;;;;21.67;16.80;;;4.30;99.90;;;4.36;82.36;101248.69;5092234;28;20078;-70
2021/01/27 01:12:40;;;;;;;26.47;18.20;;;4.40;99.90;;;4.45;82.35;101244.56;5074304;28;20036;-71
2021/01/27 01:15:10;;;;;;;23.90;18.57;;;4.30;99.90;;;4.21;82.79;101233.47;5092350;28;20118;-70
2021/01/27 01:17:38;;;;;;;25.88;19.27;;;4.30;99.90;;;4.26;83.29;101226.63;5070794;28;20061;-70
2021/01/27 01:20:14;;;;;;;25.23;19.83;;;4.20;99.90;;;3.54;83.29;101106.94;5070962;28;20049;-70
2021/01/27 01:22:47;;;;;;;25.83;18.83;;;4.30;99.90;;;4.19;83.80;101223.78;5072087;28;20444;-70
2021/01/27 01:25:17;;;;;;;27.33;20.10;;;4.20;99.90;;;4.10;84.06;101214.00;5073233;28;20048;-70
2021/01/27 01:27:45;;;;;;;26.83;20.05;;;4.10;99.90;;;4.23;84.39;101197.75;5074458;28;20084;-70
2021/01/27 01:30:17;;;;;;;24.20;19.77;;;4.20;99.90;;;4.26;84.29;101194.31;5074252;28;20040;-70
2021/01/27 01:32:45;;;;;;;23.63;19.13;;;4.20;99.90;;;4.17;84.17;101189.75;5074455;28;20071;-70
2021/01/27 01:35:16;;;;;;;23.83;19.50;;;4.20;99.90;;;4.16;84.31;101198.41;5075403;28;20037;-70
2021/01/27 01:37:44;;;;;;;24.23;19.37;;;4.10;99.90;;;4.14;84.65;101180.94;5074226;28;20044;-70
2021/01/27 01:40:16;;;;;;;25.33;20.53;;;4.10;99.90;;;3.94;84.98;101164.69;5074078;28;20058;-70
2021/01/27 01:42:43;;;;;;;26.40;20.70;;;4.00;99.90;;;4.02;84.78;101177.97;5075357;28;20037;-70
2021/01/27 01:45:31;;;;;;;22.30;19.67;;;4.00;99.90;;;4.12;84.63;101153.81;5075257;28;20098;-70
2021/01/27 01:48:01;;;;;;;22.87;19.23;;;4.10;99.90;;;3.91;84.70;101159.34;5074139;28;20402;-70
2021/01/27 01:50:30;;;;;;;24.63;19.60;;;4.00;99.90;;;3.90;85.26;101144.53;5074021;28;20397;-71
2021/01/27 01:52:59;;;;;;;24.80;19.97;;;3.90;99.90;;;4.03;84.62;101146.59;5075190;28;20052;-70
2021/01/27 01:55:27;;;;;;;23.83;18.83;;;4.00;99.90;;;3.84;84.99;101089.41;5075051;28;20040;-70
2021/01/27 01:57:56;;;;;;;22.27;19.23;;;4.00;99.90;;;4.04;84.48;101135.31;5075153;28;20237;-71
2021/01/27 02:00:26;;;;;;;23.20;19.30;;;4.00;99.90;;;4.07;84.25;101138.00;5075117;28;20094;-70
2021/01/27 02:02:55;;;;;;;22.45;19.92;;;4.00;99.90;;;4.15;84.92;101115.53;5075021;28;20052;-71
2021/01/27 02:05:26;;;;;;;21.70;18.37;;;4.10;99.90;;;4.03;84.44;101101.22;5074948;28;20466;-71
2021/01/27 02:07:58;;;;;;;21.17;18.70;;;4.10;99.90;;;4.25;84.67;101138.47;5074907;28;20075;-71
2021/01/27 02:10:25;;;;;;;22.93;18.03;;;4.20;99.90;;;4.31;84.10;101128.16;5073708;28;20048;-72
2021/01/27 02:13:12;;;;;;;20.07;17.47;;;4.20;99.90;;;4.35;83.85;101136.97;5074914;28;20044;-71
2021/01/27 02:16:00;;;;;;;19.13;17.13;;;4.30;99.90;;;4.28;84.20;101135.03;5073376;28;20052;-72
2021/01/27 02:18:58;;;;;;;18.23;16.03;;;4.20;99.90;;;4.32;84.26;101129.00;5090706;28;20067;-71
2021/01/27 02:22:13;;;;;;;20.43;16.13;;;4.20;99.90;;;4.33;83.87;101096.78;5095047;28;20059;-70
2021/01/27 02:25:38;;;;;;;18.40;14.90;;;4.30;99.90;;;4.38;83.46;101098.66;5076575;28;20459;-71
2021/01/27 02:28:09;;;;;;;16.23;14.53;;;4.30;99.90;;;4.20;83.64;101085.09;5076599;28;20151;-70
2021/01/27 02:30:53;;;;;;;15.67;14.17;;;4.20;99.90;;;4.28;84.31;101093.13;5076667;28;20459;-70
2021/01/27 02:33:52;;;;;;;15.70;13.97;;;4.20;99.90;;;4.30;83.69;101079.25;5076774;28;20138;-70
2021/01/27 02:36:24;;;;;;;13.10;11.90;;;4.20;99.90;;;4.37;83.72;101072.44;5094688;28;20497;-70
2021/01/27 02:38:59;;;;;;;13.73;12.37;;;4.30;99.90;;;4.28;83.58;101065.22;5094470;28;21330;-70
2021/01/27 02:41:35;;;;;;;14.00;12.50;;;4.20;99.90;;;4.24;83.86;101052.91;5094311;28;20052;-71
2021/01/27 02:44:09;;;;;;;13.57;12.27;;;4.20;99.90;;;4.21;83.93;101045.00;5094630;28;20378;-71
2021/01/27 02:46:43;;;;;;;15.13;12.23;;;4.30;99.90;;;4.33;83.79;101066.25;5094314;28;20047;-70
2021/01/27 02:49:16;;;;;;;14.03;11.67;;;4.30;99.90;;;4.24;84.06;101049.44;5094393;28;20044;-70
2021/01/27 02:51:51;;;;;;;12.97;11.57;;;4.20;99.90;;;4.37;84.32;101060.22;5094217;28;20036;-70
2021/01/27 02:54:23;;;;;;;12.37;11.17;;;4.30;99.90;;;4.36;83.76;101061.06;5094273;28;20040;-70
2021/01/27 02:56:58;;;;;;;12.07;10.80;;;4.30;99.90;;;4.35;83.72;101048.84;5076063;28;20070;-70
2021/01/27 02:59:37;;;;;;;13.03;11.23;;;4.30;99.90;;;4.29;83.83;101059.16;5094235;28;20051;-70
2021/01/27 03:02:09;;;;;;;14.47;12.97;;;4.20;99.90;;;4.18;84.27;101047.53;5093992;28;20047;-70
2021/01/27 03:04:47;;;;;;;13.77;12.43;;;4.20;99.90;;;3.98;84.58;101008.66;5094196;28;20059;-70
2021/01/27 03:07:18;;;;;;;13.07;11.67;;;4.10;99.90;;;4.22;84.58;101028.44;5094014;28;20048;-70
2021/01/27 03:09:50;;;;;;;16.43;12.73;;;4.10;99.90;;;4.11;84.99;101043.00;5094050;28;20139;-70
2021/01/27 03:12:18;;;;;;;13.77;12.57;;;4.00;99.90;;;4.04;85.22;101020.16;5093908;28;20048;-70
2021/01/27 03:14:47;;;;;;;13.47;12.27;;;4.00;99.90;;;4.05;85.62;101035.00;5093722;28;20059;-70
2021/01/27 03:17:18;;;;;;;13.97;12.67;;;4.00;99.90;;;3.90;85.23;101010.19;5093655;28;20113;-70
2021/01/27 03:19:56;;;;;;;13.27;12.07;;;4.00;99.90;;;3.93;85.02;101008.53;5093738;28;20127;-69
2021/01/27 03:22:32;;;;;;;12.57;11.40;;;4.00;99.90;;;3.35;85.10;100908.56;5093740;28;20485;-70
2021/01/27 03:25:07;;;;;;;13.57;12.17;;;3.90;99.90;;;3.91;85.52;101028.53;5093554;28;20054;-70
2021/01/27 03:27:41;;;;;;;14.00;12.70;;;3.90;99.90;;;3.94;85.57;101023.41;5093747;28;20501;-70
2021/01/27 03:30:12;;;;;;;14.43;12.97;;;3.80;99.90;;;3.90;86.23;101010.19;5093551;28;20036;-70
2021/01/27 03:32:47;;;;;;;14.70;13.20;;;3.90;99.90;;;3.30;86.00;100889.28;5093624;28;20075;-70
2021/01/27 03:35:29;;;;;;;14.37;13.07;;;3.90;99.90;;;3.59;85.81;100930.09;5093545;28;20055;-69
2021/01/27 03:38:02;;;;;;;14.53;13.03;;;4.00;99.90;;;4.02;85.96;101021.88;5093303;28;20040;-70
2021/01/27 03:40:30;;;;;;;14.40;13.00;;;3.90;99.90;;;4.03;86.72;101005.31;5093466;28;20039;-70
2021/01/27 03:43:08;;;;;;;15.03;13.63;;;4.00;99.90;;;4.10;86.58;101008.97;5093251;28;20040;-70
2021/01/27 03:45:48;;;;;;;15.53;14.03;;;4.00;99.90;;;4.04;86.39;101008.81;5093361;28;20059;-70
2021/01/27 03:48:23;;;;;;;14.60;13.30;;;4.00;99.90;;;4.09;86.55;101002.84;5074795;28;20067;-70
2021/01/27 03:50:56;;;;;;;15.30;13.90;;;4.00;99.90;;;4.02;86.61;100998.31;5093380;28;20074;-70
2021/01/27 03:53:26;;;;;;;14.40;13.10;;;4.00;99.90;;;3.79;86.50;100955.03;5093546;28;20051;-70
2021/01/27 03:55:59;;;;;;;;;;;3.90;99.90;;;3.61;86.53;100913.63;5093709;28;20044;-70
2021/01/27 03:58:34;;;;;;;15.17;13.70;;;4.00;99.90;;;4.06;86.59;100988.78;5074860;28;19935;-70
2021/01/27 04:01:05;;;;;;;15.57;14.07;;;4.00;99.90;;;4.01;86.80;100977.31;5092942;28;20090;-70
2021/01/27 04:03:34;;;;;;;16.10;14.70;;;4.00;99.90;;;3.63;86.68;100918.88;5093149;28;20052;-69
2021/01/27 04:06:02;;;;;;;15.93;14.43;;;3.80;99.90;;;3.92;87.69;100950.94;5092900;28;20039;-70
2021/01/27 04:08:30;;;;;;;15.27;13.77;;;3.80;99.90;;;3.98;87.37;100941.53;5074844;28;20374;-69
2021/01/27 04:10:59;;;;;;;15.53;14.10;;;3.90;99.90;;;3.98;87.17;100936.28;5074636;28;20056;-70
2021/01/27 04:13:27;;;;;;;16.80;15.20;;;3.90;99.90;;;3.89;87.65;100909.03;5092990;28;20069;-70
2021/01/27 04:15:55;;;;;;;15.27;13.73;;;3.90;99.90;;;4.06;87.16;100934.75;5092838;28;20123;-70
2021/01/27 04:18:22;;;;;;;15.33;13.93;;;4.00;99.90;;;4.10;87.56;100926.09;5092673;28;20056;-70
2021/01/27 04:20:50;;;;;;;15.93;14.33;;;4.00;99.90;;;4.10;87.53;100915.63;5074630;28;20043;-70
2021/01/27 04:23:18;;;;;;;14.80;13.40;;;4.00;99.90;;;4.17;87.43;100920.16;5074593;28;20450;-70
2021/01/27 04:25:46;;;;;;;13.90;12.50;;;4.10;99.90;;;4.16;87.21;100896.56;5092702;28;20043;-70
2021/01/27 04:28:14;;;;;;;14.77;13.47;;;4.00;99.90;;;3.99;87.50;100888.31;5092878;28;20076;-70
2021/01/27 04:30:42;;;;;;;13.00;11.83;;;4.00;99.90;;;4.10;87.76;100913.03;5074651;28;20048;-70
2021/01/27 04:33:11;;;;;;;13.23;12.03;;;4.00;99.90;;;4.08;87.46;100898.13;5092655;28;20059;-70
2021/01/27 04:35:40;;;;;;;12.40;11.30;;;4.00;99.90;;;3.77;87.93;100839.03;5092513;28;20083;-70
2021/01/27 04:38:08;;;;;;;11.67;10.67;;;4.10;99.90;;;4.24;87.92;100903.72;5092443;28;20402;-70
2021/01/27 04:40:39;;;;;;;14.20;12.80;;;4.10;99.90;;;4.37;87.25;100921.47;5074407;28;20058;-69
2021/01/27 04:43:21;;;;;;;13.60;12.30;;;4.20;99.90;;;4.45;87.00;100908.53;5074694;28;20110;-70
2021/01/27 04:45:56;;;;;;;13.90;12.40;;;4.30;99.90;;;4.36;87.08;100910.94;5092608;28;20489;-70
2021/01/27 04:48:35;;;;;;;12.73;11.63;;;4.30;99.90;;;4.38;87.01;100902.28;5092559;28;20370;-70
2021/01/27 04:51:04;;;;;;;12.57;11.37;;;4.30;99.90;;;4.09;87.00;100877.22;5092560;28;20036;-70
2021/01/27 04:54:01;;;;;;;12.10;11.00;;;4.20;99.90;;;4.17;87.35;100916.63;5092456;28;20040;-70
2021/01/27 04:57:14;;;;;;;13.23;12.00;;;4.20;99.90;;;4.11;87.36;100880.75;5071971;28;20048;-70
2021/01/27 04:59:58;;;;;;;12.83;11.63;;;4.10;99.90;;;4.17;87.69;100888.75;5041626;28;20048;-70
2021/01/27 05:02:52;;;;;;;14.50;13.03;;;4.10;99.90;;;4.22;87.24;100883.63;5078326;28;20048;-70
2021/01/27 05:05:26;;;;;;;12.33;11.20;;;4.10;99.90;;;4.29;87.34;100862.81;5095186;28;20087;-70
2021/01/27 05:08:03;;;;;;;12.90;11.80;;;4.20;99.90;;;4.28;87.74;100866.28;5096421;28;20051;-70
2021/01/27 05:10:39;;;;;;;14.20;13.00;;;4.20;99.90;;;4.31;87.40;100863.75;5096344;28;20097;-69
2021/01/27 05:13:18;;;;;;;14.00;12.77;;;4.10;99.90;;;4.35;87.81;100859.44;5096563;28;20833;-69
2021/01/27 05:15:48;;;;;;;13.70;12.50;;;4.20;99.90;;;4.25;87.89;100861.00;5096026;28;20056;-69
2021/01/27 05:18:17;;;;;;;14.38;13.07;;;4.20;99.90;;;4.32;87.78;100856.75;5096101;28;20082;-69
2021/01/27 05:20:48;;;;;;;14.47;13.17;;;4.20;99.90;;;4.26;88.07;100854.88;5096094;28;20044;-69
2021/01/27 05:23:17;;;;;;;16.00;14.53;;;4.20;99.90;;;4.26;88.11;100844.41;5096032;28;20072;-66
2021/01/27 05:25:48;;;;;;;14.57;13.27;;;4.20;99.90;;;4.39;87.89;100849.03;5095879;28;20044;-68
2021/01/27 05:28:20;;;;;;;;;;;4.20;99.90;;;4.33;88.09;100842.81;5096338;28;20097;-68
2021/01/27 05:30:52;;;;;;;18.37;16.67;;;4.30;99.90;;;4.37;87.95;100848.16;5096076;28;20014;-68
2021/01/27 05:33:20;;;;;;;17.77;16.07;;;4.20;99.90;;;4.36;88.08;100849.00;5095971;28;20036;-68
2021/01/27 05:35:48;;;;;;;18.43;16.57;;;4.30;99.90;;;4.38;88.80;100847.28;5095747;28;20048;-69
2021/01/27 05:38:28;;;;;;;19.27;17.47;;;4.30;99.90;;;4.37;88.40;100842.03;5095553;28;20105;-68
2021/01/27 05:41:05;;;;;;;;;;;4.30;99.90;;;4.50;88.33;100852.78;5077782;28;20047;-68
2021/01/27 05:43:33;;;;;;;18.80;16.90;;;4.30;99.90;;;4.54;87.94;100877.28;5095673;28;19920;-69
2021/01/27 05:46:16;;;;;;;20.13;18.23;;;4.40;99.90;;;4.55;88.41;100858.97;5095640;28;20044;-69
2021/01/27 05:48:51;;;;;;;21.13;19.03;;;4.40;99.90;;;4.65;88.38;100854.78;5095421;28;20493;-69
2021/01/27 05:51:29;;;;;;;20.80;18.80;;;4.50;99.90;;;4.56;88.05;100862.50;5095393;28;20068;-69
2021/01/27 05:53:57;;;;;;;21.73;19.40;;;4.50;99.90;;;4.53;88.01;100862.41;5095357;28;20050;-69
2021/01/27 05:56:26;;;;;;;20.60;18.50;;;4.40;99.90;;;4.58;88.48;100856.44;5095348;28;20122;-69
2021/01/27 05:59:01;;;;;;;23.37;18.97;;;4.40;99.90;;;3.99;88.51;100733.97;5095259;28;20485;-69
2021/01/27 06:01:35;;;;;;;23.17;19.80;;;4.50;99.90;;;4.67;88.95;100844.34;5095210;28;20047;-69
2021/01/27 06:04:22;;;;;;;21.90;19.60;;;4.50;99.90;;;4.65;88.69;100832.94;5095215;28;20082;-69
2021/01/27 06:07:03;;;;;;;18.50;16.67;;;4.50;99.90;;;4.68;88.63;100833.03;5076410;28;20044;-69
2021/01/27 06:09:42;;;;;;;18.87;16.97;;;4.50;99.90;;;4.52;89.06;100819.66;5095020;28;20047;-69
2021/01/27 06:12:26;;;;;;;19.07;17.17;;;4.50;99.90;;;4.12;89.54;100717.63;5094466;28;20485;-69
2021/01/27 06:15:13;;;;;;;17.40;15.60;;;4.40;99.90;;;4.52;89.20;100788.22;5095481;28;20101;-69
2021/01/27 06:17:45;;;;;;;17.90;16.10;;;4.50;99.90;;;4.56;89.54;100808.38;5095013;28;20060;-69
2021/01/27 06:20:37;;;;;;;18.43;16.70;;;4.40;99.90;;;4.64;89.08;100815.47;5094706;28;20083;-69
2021/01/27 06:23:57;;;;;;;18.50;16.60;;;4.50;99.90;;;4.74;88.81;100817.44;5072482;28;20063;-69
2021/01/27 06:27:12;;;;;;;17.77;15.98;;;4.60;99.90;;;4.73;89.22;100824.38;5094732;28;20139;-69
2021/01/27 06:30:19;;;;;;;18.63;16.73;;;4.60;99.90;;;4.79;88.64;100810.50;5028878;28;20044;-69
2021/01/27 06:33:18;;;;;;;19.33;17.27;;;4.60;99.90;;;4.90;88.57;100835.16;5070191;28;20413;-69
2021/01/27 06:36:04;;;;;;;20.42;18.15;;;4.70;99.90;;;4.76;88.71;100823.56;5094735;28;20068;-69
2021/01/27 06:39:03;;;;;;;20.23;18.13;;;4.70;99.90;;;4.03;88.93;100677.34;5094498;28;20032;-69
2021/01/27 06:41:49;;;;;;;23.17;20.80;;;4.60;99.90;;;4.62;88.97;100801.47;5094505;28;20051;-69
2021/01/27 06:44:51;;;;;;;23.00;20.57;;;4.60;99.90;;;4.66;89.73;100816.41;5076452;28;20040;-69
2021/01/27 06:47:35;;;;;;;23.37;20.87;;;4.50;99.90;;;4.65;89.85;100794.56;5094315;28;20074;-69
2021/01/27 06:50:29;;;;;;;24.30;21.57;;;4.60;99.90;;;4.73;89.52;100808.66;5094506;28;20068;-69
2021/01/27 06:54:00;;;;;;;24.53;22.03;;;4.60;99.90;;;4.80;89.46;100812.28;5076274;28;20044;-69
2021/01/27 06:57:17;;;;;;;25.30;22.70;;;4.60;99.90;;;4.78;89.07;100790.44;5094266;28;20412;-69
2021/01/27 07:00:16;;;;;;;27.33;24.43;;;4.70;99.90;;;4.59;89.59;100789.19;5065656;28;20052;-69
2021/01/27 07:03:37;;;;;;;26.57;23.50;;;4.60;99.90;;;4.72;89.97;100798.19;5094098;28;20046;-69
2021/01/27 07:06:51;;;;;;;30.40;25.10;;;4.50;99.90;;;4.64;90.25;100784.06;5093761;28;20063;-69
2021/01/27 07:09:54;;;;;;;31.27;25.10;;;4.60;99.90;;;4.79;90.30;100794.78;5063739;28;20485;-69
2021/01/27 07:12:26;;;;;;;28.10;25.10;;;4.60;99.90;;;4.54;90.18;100786.53;5067032;28;20056;-69
2021/01/27 07:15:49;;;;;;;31.53;27.73;;;4.60;99.90;;;4.58;90.39;100801.44;5094103;28;20089;-69
2021/01/27 07:19:01;;;;;;;31.30;27.90;;;4.50;99.90;;;4.55;91.11;100798.75;5065633;28;20044;-69
2021/01/27 07:21:36;;;;;;;32.20;27.53;;;4.40;99.90;;;4.57;91.46;100810.13;5093814;28;20062;-69
2021/01/27 07:24:17;;;;;;;32.10;28.60;;;4.50;99.90;;;4.63;90.98;100818.97;5092864;28;20048;-69
2021/01/27 07:26:55;;;;;;;33.93;28.47;;;4.50;99.90;;;4.66;91.09;100819.00;5093718;28;20048;-69
2021/01/27 07:29:28;;;;;;;31.83;27.37;;;4.50;99.90;;;4.68;91.43;100812.97;5093827;28;20055;-70
2021/01/27 07:32:01;;;;;;;34.73;30.37;;;4.50;99.90;;;4.66;91.52;100814.66;5075522;28;20113;-69
2021/01/27 07:34:36;;;;;;;35.87;29.20;;;4.50;99.90;;;4.63;91.47;100792.78;5093571;28;20076;-69
2021/01/27 07:37:19;;;;;;;36.77;31.10;;;4.60;99.90;;;4.68;91.71;100827.78;5093445;28;20100;-70
2021/01/27 07:40:03;;;;;;;35.43;30.90;;;4.60;99.90;;;4.48;91.77;100795.97;5093441;28;20044;-70
2021/01/27 07:42:38;;;;;;;33.47;27.77;;;4.50;99.90;;;4.56;91.46;100790.06;5075316;28;20135;-70
2021/01/27 07:45:11;;;;;;;32.30;27.37;;;4.70;99.90;;;4.80;91.88;100820.16;5093368;28;20048;-69
2021/01/27 07:47:51;;;;;;;33.77;28.80;;;4.60;99.90;;;4.68;91.62;100801.59;5075036;28;20083;-69
2021/01/27 07:50:22;;;;;;;32.90;27.88;;;4.70;99.90;;;4.84;92.14;100820.22;5093442;28;20054;-70
2021/01/27 07:53:03;;;;;;;32.70;28.92;;;4.70;99.90;;;4.72;92.04;100816.50;5093361;28;20052;-70
2021/01/27 07:55:41;;;;;;;35.60;29.93;;;4.60;99.90;;;4.74;92.40;100828.78;5093033;28;20044;-70
2021/01/27 07:58:14;;;;;;;34.67;29.17;;;4.60;99.90;;;4.64;92.25;100794.53;5092974;28;20051;-70
2021/01/27 08:00:50;;;;;;;35.17;30.77;;;4.60;99.90;;;4.78;92.56;100811.38;5093173;28;20131;-70
2021/01/27 08:03:35;;;;;;;34.70;30.90;;;4.60;99.90;;;4.93;92.37;100824.75;5092781;28;20497;-70
2021/01/27 08:06:07;;;;;;;34.17;28.93;;;4.80;99.90;;;4.63;92.42;100771.81;5092956;28;20028;-69
2021/01/27 08:08:48;;;;;;;34.07;28.97;;;4.80;99.90;;;4.77;92.20;100800.00;5092722;28;20125;-70
2021/01/27 08:11:22;;;;;;;32.87;29.00;;;4.70;99.90;;;4.88;92.61;100805.47;5092937;28;20405;-69
2021/01/27 08:13:50;;;;;;;35.57;30.23;;;4.80;99.90;;;4.80;92.73;100804.44;5092866;28;20090;-70
2021/01/27 08:16:40;;;;;;;34.57;29.67;;;4.70;99.90;;;4.92;93.06;100815.09;5092989;28;20056;-69
2021/01/27 08:19:33;;;;;;;33.35;28.88;;;4.80;99.90;;;4.96;92.81;100817.81;5092729;28;20050;-70
2021/01/27 08:22:05;;;;;;;36.20;30.30;;;4.80;99.90;;;4.66;93.06;100774.50;5093041;28;20044;-70
2021/01/27 08:24:56;;;;;;;34.60;29.27;;;4.80;99.90;;;4.98;93.05;100823.06;5092629;28;20036;-70
2021/01/27 08:27:36;;;;;;;34.80;30.33;;;4.80;99.90;;;5.14;92.91;100831.25;5092991;28;20048;-71
2021/01/27 08:30:28;;;;;;;32.80;28.55;;;4.90;99.90;;;5.07;92.51;100831.13;5092989;28;20059;-70
2021/01/27 08:33:40;;;;;;;36.73;31.10;;;4.90;99.90;;;5.14;92.81;100836.47;5092607;28;20052;-71
2021/01/27 08:36:13;;;;;;;40.37;31.17;;;5.00;99.90;;;5.21;92.57;100834.81;5096879;28;20484;-71
2021/01/27 08:38:45;;;;;;;41.00;32.10;;;5.10;99.90;;;5.13;92.60;100823.38;5096715;28;20052;-71
2021/01/27 08:41:51;;;;;;;235.80;122.70;;;5.00;99.90;;;5.27;92.76;100827.06;5078264;28;20119;-66
2021/01/27 08:44:30;;;;;;;40.80;32.73;;;5.10;99.90;;;5.31;92.41;100828.88;5078882;28;20123;-67
2021/01/27 08:47:01;;;;;;;363.67;190.53;;;5.10;99.90;;;5.34;92.74;100828.94;5076491;28;20052;-66
2021/01/27 08:49:51;;;;;;;39.70;31.87;;;5.20;99.90;;;5.32;92.47;100838.53;5076282;28;20098;-68
2021/01/27 08:52:45;;;;;;;42.23;33.40;;;5.20;99.90;;;5.36;92.47;100853.47;5076674;28;20053;-66
2021/01/27 08:55:39;;;;;;;38.57;31.67;;;5.20;99.90;;;5.44;92.45;100847.44;5058417;28;20079;-66
2021/01/27 08:58:27;;;;;;;39.10;31.37;;;5.30;99.90;;;5.38;92.09;100821.13;5063916;28;20140;-66
2021/01/27 09:00:58;;;;;;;41.87;33.13;;;5.40;99.90;;;5.47;92.08;100850.16;5076066;28;20052;-66
2021/01/27 09:04:03;;;;;;;41.43;32.33;;;5.40;99.90;;;5.70;91.76;100860.97;5076067;28;20402;-67
2021/01/27 09:06:42;;;;;;;45.10;33.03;;;5.50;99.90;;;5.70;91.88;100860.97;5075898;28;20048;-67
2021/01/27 09:09:31;;;;;;;42.43;33.50;;;5.50;99.90;;;5.78;92.05;100861.97;5075759;28;20049;-67
2021/01/27 09:12:02;;;;;;;40.97;32.53;;;5.60;99.90;;;5.95;91.94;100859.63;5075851;28;20053;-67
2021/01/27 09:14:30;;;;;;;43.70;32.73;;;5.70;99.90;;;5.98;91.52;100862.28;5075905;28;20056;-67
2021/01/27 09:17:01;;;;;;;42.03;33.33;;;5.80;99.90;;;5.85;91.75;100848.09;5075526;28;20045;-67
2021/01/27 09:19:31;;;;;;;47.17;33.65;;;5.80;99.90;;;5.98;92.18;100878.91;5075613;28;20111;-67
2021/01/27 09:22:22;;;;;;;46.10;33.20;;;5.80;99.90;;;6.24;91.78;100874.91;5057897;28;20101;-67
2021/01/27 09:24:52;;;;;;;39.70;30.70;;;6.00;99.90;;;6.45;91.41;100876.91;5075597;28;20040;-67
2021/01/27 09:27:24;;;;;;;41.33;31.80;;;6.20;99.90;;;6.38;90.87;100880.34;5057654;28;20071;-67
2021/01/27 09:30:01;;;;;;;41.90;31.23;;;6.20;99.90;;;6.33;90.67;100875.00;5075501;28;20072;-67
2021/01/27 09:32:31;;;;;;;40.10;29.83;;;6.20;99.90;;;6.34;90.86;100875.91;5075490;28;20044;-67
2021/01/27 09:35:17;;;;;;;39.88;28.75;;;6.20;99.90;;;6.55;90.85;100885.78;5075546;28;20053;-67
2021/01/27 09:37:52;;;;;;;43.77;31.90;;;6.20;99.90;;;6.48;90.38;100870.81;5075428;28;20068;-67
2021/01/27 09:40:28;;;;;;;43.23;32.07;;;6.40;99.90;;;6.57;90.08;100868.28;5075564;28;20102;-67
2021/01/27 09:43:04;;;;;;;40.33;31.27;;;6.50;99.90;;;6.78;89.80;100900.06;5075268;28;20106;-67
2021/01/27 09:45:34;;;;;;;38.10;30.57;;;6.50;99.90;;;6.77;90.06;100899.22;5087487;28;20039;-67
2021/01/27 09:48:05;;;;;;;40.40;31.25;;;6.50;99.90;;;6.90;89.77;100897.56;5095473;28;20032;-67
2021/01/27 09:50:33;;;;;;;;;;;6.60;99.90;;;6.98;89.33;100901.19;5096204;28;20442;-67
2021/01/27 09:53:02;;;;;;;41.47;30.97;;;6.70;99.90;;;6.99;89.38;100884.53;5094931;28;19943;-67
2021/01/27 09:55:31;;;;;;;41.17;29.05;;;6.80;99.90;;;7.21;88.46;100910.19;5095390;28;20142;-67
2021/01/27 09:58:03;;;;;;;37.97;29.07;;;6.90;99.90;;;7.35;88.64;100919.09;5095126;28;20105;-67
2021/01/27 10:00:37;;;;;;;37.17;28.00;;;7.10;99.90;;;7.26;88.18;100882.16;5095320;28;20047;-68
2021/01/27 10:03:27;;;;;;;64.37;40.57;;;7.20;99.90;;;7.59;88.23;100916.66;5095201;28;20048;-72
2021/01/27 10:05:55;;;;;;;40.00;26.95;;;7.30;99.90;;;7.63;87.75;100902.66;5095419;28;20465;-76
2021/01/27 10:08:27;;;;;;;38.33;26.20;;;7.50;99.90;;;7.76;87.37;100917.66;5095194;28;20043;-78
2021/01/27 10:11:21;;;;;;;36.00;26.83;;;7.50;99.90;;;7.88;87.38;100935.31;5076980;28;20485;-76
2021/01/27 10:13:49;;;;;;;33.33;25.08;;;7.60;99.90;;;7.95;87.42;100922.22;5094885;28;20557;-76
2021/01/27 10:16:17;;;;;;;32.83;25.60;;;7.70;99.90;;;8.07;87.36;100931.97;5095171;28;20090;-75
2021/01/27 10:18:45;;;;;;;33.30;24.10;;;7.80;99.90;;;8.07;86.80;100924.06;5073324;28;20060;-78
2021/01/27 10:21:16;;;;;;;32.50;26.57;;;7.90;99.90;;;8.16;86.98;100938.16;5074787;28;20047;-82
2021/01/27 10:23:46;;;;;;;37.63;26.02;;;8.00;99.90;;;8.29;87.13;100939.13;5073275;28;20497;-76
2021/01/27 10:26:35;;;;;;;30.83;22.02;;;8.10;99.90;;;8.33;87.96;100934.75;5074460;28;20052;-78
2021/01/27 10:29:22;;;;;;;32.50;20.77;;;8.20;99.90;;;8.28;89.65;100936.50;5074744;28;20127;-74
2021/01/27 10:31:53;;;;;;;32.58;22.25;;;8.10;99.90;;;8.35;90.28;100939.19;5073301;28;20476;-74
2021/01/27 10:34:41;;;;;;;43.22;22.65;;;8.20;99.90;;;8.47;90.50;100941.00;5074288;28;20409;-74
2021/01/27 10:37:35;;;;;;;32.22;21.58;;;8.30;99.90;;;8.48;90.39;100943.63;5074163;28;20127;-74
2021/01/27 10:40:15;;;;;;;33.70;20.98;;;8.30;99.90;;;8.32;90.39;100933.00;5074163;28;20045;-72
2021/01/27 10:42:45;;;;;;;32.53;20.75;;;8.30;99.90;;;8.58;90.50;100948.09;5074123;28;20048;-73
2021/01/27 10:45:38;;;;;;;34.72;20.98;;;8.30;99.90;;;8.59;90.17;100954.25;5074181;28;20608;-72
2021/01/27 10:48:24;;;;;;;33.72;22.30;;;8.40;99.90;;;8.53;89.43;100951.56;5074186;28;20048;-73
2021/01/27 10:50:56;;;;;;;34.65;20.77;;;8.40;99.90;;;8.47;89.33;100951.53;5072651;28;20052;-72
2021/01/27 10:53:36;;;;;;;29.48;20.83;;;8.40;99.90;;;8.57;89.39;100950.72;5072856;28;20052;-73
2021/01/27 10:56:05;;;;;;;33.58;21.30;;;8.40;99.90;;;8.38;89.54;100925.16;5072749;28;20045;-73